Time;durP1;ratioP1;P1;durP2;ratioP2;P2;SDS_P1;SDS_P2;PMS_P1;PMS_P2;Temp;Humidity;BMP_temperature;BMP_pressure;BME280_temperature;BME280_humidity;BME280_pressure;Samples;Min_cycle;Max_cycle;Signal;HPM_P1;HPM_P2
2022/10/25 00:00:23;;;;;;;15.23;2.35;;;;;;;13.33;100.00;100825.69;5090121;28;20040;-59
2022/10/25 00:02:50;;;;;;;12.15;2.30;;;;;;;13.39;100.00;100833.03;5105678;28;20440;-59
2022/10/25 00:05:17;;;;;;;15.13;2.38;;;;;;;13.36;100.00;100833.34;5089439;28;20056;-59
2022/10/25 00:07:44;;;;;;;13.15;2.28;;;;;;;13.39;100.00;100831.19;5088540;28;20448;-59
2022/10/25 00:10:11;;;;;;;15.30;2.38;;;;;;;13.38;100.00;100826.84;5090100;28;20044;-59
2022/10/25 00:12:42;;;;;;;20.80;2.72;;;;;;;13.41;100.00;100831.84;5089718;28;20236;-59
2022/10/25 00:15:12;;;;;;;15.27;2.40;;;;;;;13.37;100.00;100837.66;5089743;28;20041;-59
2022/10/25 00:17:41;;;;;;;20.23;2.72;;;;;;;13.34;100.00;100830.03;5089475;28;20056;-59
2022/10/25 00:20:09;;;;;;;19.58;2.70;;;;;;;13.34;100.00;100838.84;5105149;28;20093;-59
2022/10/25 00:22:35;;;;;;;17.35;2.63;;;;;;;13.31;100.00;100833.84;5088260;28;20048;-59
2022/10/25 00:25:05;;;;;;;21.00;2.90;;;;;;;13.39;100.00;100839.19;5089927;28;20440;-59
2022/10/25 00:27:32;;;;;;;15.13;2.50;;;;;;;13.43;100.00;100839.66;5089495;28;20048;-58
2022/10/25 00:29:59;;;;;;;19.27;4.05;;;;;;;13.40;100.00;100840.81;5089468;28;20041;-59
2022/10/25 00:32:25;;;;;;;18.35;2.85;;;;;;;13.38;100.00;100840.16;5089358;28;20040;-59
2022/10/25 00:34:52;;;;;;;18.20;2.45;;;;;;;13.39;100.00;100841.84;5089264;28;20402;-59
2022/10/25 00:37:19;;;;;;;13.35;2.10;;;;;;;13.33;100.00;100847.81;5089596;28;20068;-58
2022/10/25 00:39:46;;;;;;;21.45;2.35;;;;;;;13.33;100.00;100847.00;4971399;28;20040;-58
2022/10/25 00:42:23;;;;;;;14.18;2.33;;;;;;;13.37;100.00;100841.19;5076329;28;20041;-59
2022/10/25 00:44:56;;;;;;;15.07;2.60;;;;;;;13.34;100.00;100838.84;5075748;28;20049;-59
2022/10/25 00:47:47;;;;;;;15.07;2.58;;;;;;;13.33;100.00;100841.69;5074654;28;20044;-59
2022/10/25 00:50:38;;;;;;;13.73;2.10;;;;;;;13.23;100.00;100844.50;5075887;28;20482;-59
2022/10/25 00:53:09;;;;;;;13.48;2.15;;;;;;;13.34;100.00;100852.16;5075585;28;20048;-59
2022/10/25 00:55:38;;;;;;;;;;;;;;;13.28;100.00;100850.16;5076033;28;20452;-59
2022/10/25 00:58:08;;;;;;;13.18;2.47;;;;;;;13.32;100.00;100850.69;5075615;28;19946;-58
2022/10/25 01:00:36;;;;;;;18.15;2.55;;;;;;;13.25;100.00;100850.50;5075498;28;20051;-59
2022/10/25 01:03:04;;;;;;;15.07;2.45;;;;;;;13.15;100.00;100853.34;5075422;28;20437;-59
2022/10/25 01:05:33;;;;;;;15.85;2.53;;;;;;;13.25;100.00;100855.81;5074715;28;20047;-58
2022/10/25 01:08:00;;;;;;;17.23;2.65;;;;;;;13.24;100.00;100855.00;5090563;28;20506;-58
2022/10/25 01:10:26;;;;;;;16.27;2.22;;;;;;;13.29;100.00;100858.97;5075197;28;20516;-59
2022/10/25 01:12:53;;;;;;;17.17;2.15;;;;;;;13.34;100.00;100862.81;5075253;28;20049;-58
2022/10/25 01:15:27;;;;;;;21.73;3.53;;;;;;;13.38;100.00;100863.31;5074981;28;20056;-59
2022/10/25 01:18:11;;;;;;;15.38;2.72;;;;;;;13.43;100.00;100871.66;5073981;28;20441;-58
2022/10/25 01:21:09;;;;;;;13.93;2.55;;;;;;;13.48;100.00;100871.97;5073816;28;20056;-58
2022/10/25 01:24:15;;;;;;;16.02;2.67;;;;;;;13.51;99.45;100874.28;5074884;28;20044;-59
2022/10/25 01:27:06;;;;;;;17.88;2.80;;;;;;;13.40;100.00;100869.31;5074749;28;20045;-59
2022/10/25 01:32:46;;;;;;;16.75;2.33;;;;;;;13.40;99.87;100874.63;5068767;28;20926;-58
2022/10/25 01:35:30;;;;;;;13.05;2.15;;;;;;;13.46;100.00;100875.78;5069834;28;20051;-58
2022/10/25 01:38:07;;;;;;;14.15;2.40;;;;;;;13.38;100.00;100871.31;5102745;28;20095;-57
2022/10/25 01:40:48;;;;;;;10.98;2.20;;;;;;;13.37;100.00;100872.31;4951664;28;20064;-59
2022/10/25 01:43:28;;;;;;;13.70;2.50;;;;;;;13.44;100.00;100878.63;5070278;28;20044;-59
2022/10/25 01:46:20;;;;;;;20.00;2.67;;;;;;;13.37;100.00;100875.81;5050384;28;20049;-59
2022/10/25 01:48:54;;;;;;;16.75;2.88;;;;;;;13.39;99.80;100879.16;5050046;28;20049;-60
2022/10/25 01:51:21;;;;;;;10.38;2.40;;;;;;;13.36;99.68;100878.66;5048684;28;20037;-58
2022/10/25 01:53:50;;;;;;;14.25;2.38;;;;;;;13.33;100.00;100884.31;5050432;28;20103;-57
2022/10/25 01:56:25;;;;;;;15.35;2.30;;;;;;;13.33;100.00;100877.13;5050367;28;20057;-58
2022/10/25 01:59:27;;;;;;;12.25;2.20;;;;;;;13.43;99.92;100879.63;5082119;28;20135;-58
2022/10/25 02:02:21;;;;;;;15.52;2.47;;;;;;;13.46;99.54;100876.63;5049917;28;20116;-58
2022/10/25 02:05:14;;;;;;;15.65;2.10;;;;;;;13.43;100.00;100882.31;5080814;28;20037;-58
2022/10/25 02:07:47;;;;;;;17.92;2.90;;;;;;;13.35;99.78;100880.50;5049855;28;20037;-57
2022/10/25 02:10:28;;;;;;;23.77;2.88;;;;;;;13.23;100.00;100877.28;5048289;28;20074;-58
2022/10/25 02:13:03;;;;;;;15.03;3.53;;;;;;;13.27;100.00;100880.47;5049833;28;20037;-57
2022/10/25 02:15:38;;;;;;;16.80;2.35;;;;;;;13.32;100.00;100869.34;5066728;28;20049;-60
2022/10/25 02:18:14;;;;;;;17.02;2.28;;;;;;;13.31;100.00;100875.66;5068222;28;20045;-57
2022/10/25 02:20:43;;;;;;;11.52;2.30;;;;;;;13.29;100.00;100881.13;5101933;28;20128;-57
2022/10/25 02:23:10;;;;;;;19.05;2.83;;;;;;;13.34;99.46;100885.97;5069456;28;20604;-58
2022/10/25 02:25:40;;;;;;;12.57;2.17;;;;;;;13.30;100.00;100888.13;5069617;28;20079;-58
2022/10/25 02:28:10;;;;;;;12.10;1.95;;;;;;;13.32;100.00;100886.16;5069459;28;20040;-58
2022/10/25 02:30:41;;;;;;;13.43;2.47;;;;;;;13.33;100.00;100878.97;5068953;28;20052;-58
2022/10/25 02:33:08;;;;;;;13.68;2.50;;;;;;;13.33;100.00;100886.97;5068001;28;20044;-57
2022/10/25 02:35:35;;;;;;;17.20;2.22;;;;;;;13.30;100.00;100885.47;5069198;28;20513;-57
2022/10/25 02:38:03;;;;;;;15.90;2.75;;;;;;;13.30;99.89;100896.13;5069381;28;20132;-58
2022/10/25 02:40:30;;;;;;;12.52;2.22;;;;;;;13.27;99.99;100891.09;4959586;28;20044;-57
2022/10/25 02:47:32;;;;;;;13.50;2.15;;;;;;;13.38;100.00;100889.97;5055546;28;20069;-59
2022/10/25 02:49:59;;;;;;;14.02;2.05;;;;;;;13.49;98.84;100897.59;5055671;28;20182;-59
2022/10/25 02:52:26;;;;;;;10.57;2.10;;;;;;;13.48;99.51;100895.97;5055380;28;20041;-59
2022/10/25 02:54:52;;;;;;;16.70;2.40;;;;;;;13.40;100.00;100898.63;5054487;28;20383;-59
2022/10/25 02:57:19;;;;;;;16.83;2.30;;;;;;;13.49;100.00;100896.78;5055569;28;20053;-59
2022/10/25 02:59:46;;;;;;;21.00;2.53;;;;;;;13.48;98.85;100900.44;5055598;28;20135;-58
2022/10/25 03:02:12;;;;;;;8.27;1.92;;;;;;;13.48;98.80;100906.63;5055489;28;20091;-59
2022/10/25 03:04:39;;;;;;;17.38;2.45;;;;;;;13.61;98.11;100906.09;5054852;28;20048;-58
2022/10/25 03:07:06;;;;;;;16.60;2.40;;;;;;;13.68;98.16;100909.75;5055503;28;20045;-59
2022/10/25 03:09:33;;;;;;;15.02;2.38;;;;;;;13.58;98.45;100907.25;5054998;28;20406;-59
2022/10/25 03:11:59;;;;;;;15.70;2.20;;;;;;;13.60;98.08;100910.56;5055165;28;20099;-59
2022/10/25 03:14:26;;;;;;;13.55;2.50;;;;;;;13.60;99.16;100923.06;5054952;28;20461;-57
2022/10/25 03:16:53;;;;;;;16.13;2.40;;;;;;;13.63;98.06;100923.56;5055188;28;20095;-58
2022/10/25 03:19:19;;;;;;;13.43;2.50;;;;;;;13.56;98.72;100921.75;5054813;28;20049;-58
2022/10/25 03:21:46;;;;;;;13.23;2.75;;;;;;;13.51;99.65;100922.25;5055426;28;20041;-57
2022/10/25 03:24:13;;;;;;;12.88;2.10;;;;;;;13.51;98.20;100910.75;5055012;28;20045;-59
2022/10/25 03:26:39;;;;;;;13.88;2.40;;;;;;;13.58;98.32;100917.91;5054860;28;20045;-60
2022/10/25 03:29:06;;;;;;;12.80;2.63;;;;;;;13.59;98.01;100914.25;5054099;28;20106;-60
2022/10/25 03:31:33;;;;;;;26.02;3.83;;;;;;;13.62;97.64;100915.72;5051824;28;20087;-60
2022/10/25 03:34:00;;;;;;;12.88;2.40;;;;;;;13.52;98.71;100917.78;5054892;28;20045;-60
2022/10/25 03:36:26;;;;;;;16.58;2.40;;;;;;;13.41;98.58;100914.44;5052795;28;20049;-59
2022/10/25 03:38:54;;;;;;;15.02;2.38;;;;;;;13.54;97.80;100918.44;5018006;28;20538;-60
2022/10/25 03:41:21;;;;;;;19.92;2.50;;;;;;;13.47;98.93;100917.44;4956147;28;20068;-58
2022/10/25 03:43:47;;;;;;;13.55;2.20;;;;;;;13.50;98.71;100925.94;5053446;28;20041;-59
2022/10/25 03:46:14;;;;;;;17.38;2.20;;;;;;;13.56;97.84;100927.09;5054692;28;20095;-59
2022/10/25 03:48:41;;;;;;;15.70;2.60;;;;;;;13.68;97.69;100927.56;5054217;28;20397;-58
2022/10/25 03:51:07;;;;;;;16.50;2.75;;;;;;;13.62;97.62;100929.91;5054629;28;20390;-59
2022/10/25 03:53:34;;;;;;;14.77;2.50;;;;;;;13.60;98.25;100926.56;5054103;28;20047;-59
2022/10/25 03:56:00;;;;;;;19.17;2.53;;;;;;;13.64;98.10;100937.72;5054123;28;20114;-60
2022/10/25 03:58:27;;;;;;;17.52;2.72;;;;;;;13.70;97.58;100939.72;5054598;28;20053;-60
2022/10/25 04:00:54;;;;;;;16.05;2.45;;;;;;;13.78;97.08;100946.88;5054250;28;20095;-59
2022/10/25 04:03:21;;;;;;;20.98;2.63;;;;;;;13.76;97.12;100944.38;5054348;28;20063;-60
2022/10/25 04:05:47;;;;;;;18.98;2.50;;;;;;;13.71;97.70;100948.53;5052540;28;20551;-60
2022/10/25 04:08:14;;;;;;;11.80;2.30;;;;;;;13.71;97.58;100951.22;5054519;28;20095;-60
2022/10/25 04:10:41;;;;;;;15.27;2.47;;;;;;;13.69;98.10;100951.38;5052616;28;20128;-59
2022/10/25 04:13:07;;;;;;;11.52;2.30;;;;;;;13.66;96.94;100954.41;5053987;28;20033;-60
2022/10/25 04:15:36;;;;;;;17.05;2.70;;;;;;;13.74;97.46;100953.56;5052655;28;20079;-60
2022/10/25 04:18:03;;;;;;;14.55;2.50;;;;;;;13.70;98.33;100957.53;5053780;28;20084;-59
2022/10/25 04:20:29;;;;;;;13.00;2.55;;;;;;;13.55;98.25;100955.59;5053868;28;20037;-60
2022/10/25 04:22:57;;;;;;;12.07;2.38;;;;;;;13.60;98.48;100955.88;5053888;28;20057;-60
2022/10/25 04:25:26;;;;;;;13.05;2.60;;;;;;;13.65;98.59;100959.91;5054082;28;20036;-59
2022/10/25 04:27:53;;;;;;;12.90;2.45;;;;;;;13.62;98.47;100963.72;5053785;28;20119;-59
2022/10/25 04:30:20;;;;;;;15.48;2.63;;;;;;;13.67;98.12;100960.56;5053519;28;20124;-59
2022/10/25 04:32:46;;;;;;;16.10;2.65;;;;;;;13.69;97.98;100963.88;5053723;28;20045;-59
2022/10/25 04:35:13;;;;;;;15.38;2.90;;;;;;;13.67;98.32;100963.22;5053584;28;20620;-60
2022/10/25 04:37:40;;;;;;;13.20;2.58;;;;;;;13.65;98.03;100966.06;5053949;28;20071;-58
2022/10/25 04:40:08;;;;;;;19.02;2.90;;;;;;;13.67;98.65;100969.38;4926026;28;20041;-57
2022/10/25 04:42:34;;;;;;;18.77;2.60;;;;;;;13.57;98.64;100974.91;5053370;28;20451;-58
2022/10/25 04:45:03;;;;;;;19.55;3.47;;;;;;;13.60;98.19;100976.38;5053251;28;20041;-58
2022/10/25 04:47:31;;;;;;;14.05;2.55;;;;;;;13.65;98.03;100976.72;5053577;28;20398;-58
2022/10/25 04:49:58;;;;;;;10.60;2.47;;;;;;;13.60;98.90;100976.38;5052077;28;20037;-58
2022/10/25 04:52:25;;;;;;;14.18;2.70;;;;;;;13.66;99.14;100981.06;5053192;28;20124;-58
2022/10/25 04:54:51;;;;;;;14.85;3.08;;;;;;;13.72;97.96;100985.72;5053577;28;20041;-58
2022/10/25 04:57:18;;;;;;;15.80;3.40;;;;;;;13.81;97.30;100986.53;5053396;28;20049;-58
2022/10/25 04:59:45;;;;;;;11.07;2.65;;;;;;;13.63;98.07;100976.88;5053313;28;20090;-59
2022/10/25 05:02:11;;;;;;;16.10;3.10;;;;;;;13.66;98.05;100981.06;5053111;28;20420;-59
2022/10/25 05:04:38;;;;;;;16.40;3.17;;;;;;;13.70;98.16;100971.72;5052550;28;20486;-59
2022/10/25 05:07:04;;;;;;;13.40;2.80;;;;;;;13.69;98.76;100975.38;5052849;28;20037;-59
2022/10/25 05:09:31;;;;;;;16.63;2.90;;;;;;;13.72;97.33;100979.56;5051713;28;20094;-59
2022/10/25 05:11:58;;;;;;;15.05;3.22;;;;;;;13.72;97.46;100974.22;5053362;28;20052;-59
2022/10/25 05:14:24;;;;;;;15.80;2.75;;;;;;;13.65;97.67;100986.56;5052926;28;20059;-59
2022/10/25 05:16:51;;;;;;;16.75;2.65;;;;;;;13.55;98.07;100986.72;5053139;28;20053;-59
2022/10/25 05:19:18;;;;;;;18.00;3.03;;;;;;;13.47;99.59;100984.88;5051125;28;20090;-59
2022/10/25 05:21:46;;;;;;;13.20;2.63;;;;;;;13.52;99.19;100992.41;5053174;28;20045;-59
2022/10/25 05:24:13;;;;;;;11.65;2.85;;;;;;;13.43;99.56;100991.56;5051606;28;20410;-59
2022/10/25 05:26:39;;;;;;;14.55;2.50;;;;;;;13.54;98.46;100993.88;5051594;28;20060;-59
2022/10/25 05:29:06;;;;;;;16.52;3.20;;;;;;;13.46;99.20;100995.72;5053358;28;20434;-59
2022/10/25 05:31:38;;;;;;;13.77;3.08;;;;;;;13.42;98.61;100988.06;5047491;28;20437;-59
2022/10/25 05:34:05;;;;;;;17.60;3.53;;;;;;;13.35;98.66;100989.72;5032813;28;20095;-59
2022/10/25 05:36:32;;;;;;;20.33;3.70;;;;;;;13.37;99.67;100992.22;5032110;28;20041;-59
2022/10/25 05:38:59;;;;;;;16.58;3.60;;;;;;;13.32;99.03;100990.06;4966388;28;20546;-60
2022/10/25 05:41:27;;;;;;;16.13;3.05;;;;;;;13.35;98.84;100996.88;4942550;28;20046;-59
2022/10/25 05:43:56;;;;;;;13.60;2.78;;;;;;;13.34;99.19;100993.38;5036679;28;20037;-59
2022/10/25 05:46:23;;;;;;;15.32;3.13;;;;;;;13.29;99.78;101002.84;5052561;28;20045;-59
2022/10/25 05:48:50;;;;;;;22.70;3.30;;;;;;;13.34;99.49;101000.56;5052037;28;20376;-59
2022/10/25 05:51:27;;;;;;;17.33;3.28;;;;;;;13.30;100.00;101005.34;5051987;28;20135;-59
2022/10/25 05:53:57;;;;;;;14.32;2.92;;;;;;;13.28;99.38;101011.81;5052052;28;20406;-59
2022/10/25 05:56:26;;;;;;;13.77;2.92;;;;;;;13.24;99.81;101020.16;5051730;28;20402;-59
2022/10/25 05:58:56;;;;;;;16.25;3.08;;;;;;;13.23;100.00;101018.47;5052572;28;20051;-59
2022/10/25 06:01:24;;;;;;;16.00;3.72;;;;;;;13.22;100.00;101034.63;5052339;28;20436;-59
2022/10/25 06:03:53;;;;;;;15.10;3.22;;;;;;;13.18;100.00;101031.47;5050524;28;20147;-59
2022/10/25 06:06:21;;;;;;;17.90;4.72;;;;;;;13.22;100.00;101031.97;5050842;28;20049;-59
2022/10/25 06:08:48;;;;;;;13.73;3.10;;;;;;;13.24;100.00;101043.28;5052297;28;20437;-59
2022/10/25 06:11:17;;;;;;;13.48;2.85;;;;;;;13.29;99.75;101045.47;5052395;28;20045;-59
2022/10/25 06:13:45;;;;;;;14.38;3.53;;;;;;;13.20;100.00;101042.78;5052503;28;20402;-59
2022/10/25 06:16:14;;;;;;;12.55;2.88;;;;;;;13.19;100.00;101049.13;5052336;28;20037;-59
2022/10/25 06:18:42;;;;;;;13.13;2.97;;;;;;;13.30;99.67;101045.31;5054693;28;20040;-60
2022/10/25 06:21:11;;;;;;;17.17;3.42;;;;;;;13.31;98.53;101049.66;5055911;28;20037;-59
2022/10/25 06:23:39;;;;;;;20.83;3.25;;;;;;;13.25;99.42;101047.63;5056283;28;20041;-59
2022/10/25 06:26:08;;;;;;;16.80;3.22;;;;;;;13.28;98.13;101051.78;5056488;28;20049;-59
2022/10/25 06:28:36;;;;;;;19.80;3.10;;;;;;;13.24;98.85;101061.94;5054552;28;20044;-59
2022/10/25 06:31:07;;;;;;;12.60;3.08;;;;;;;13.16;99.71;101060.09;5055649;28;20118;-59
2022/10/25 06:33:34;;;;;;;17.95;3.33;;;;;;;13.16;99.77;101062.75;5054382;28;20095;-59
2022/10/25 06:36:03;;;;;;;14.23;3.30;;;;;;;13.14;100.00;101064.75;5056317;28;20056;-59
2022/10/25 06:38:30;;;;;;;12.73;2.80;;;;;;;13.12;100.00;101060.59;5055478;28;20124;-59
2022/10/25 06:40:58;;;;;;;16.50;3.03;;;;;;;13.13;100.00;101064.91;4934245;28;20057;-59
2022/10/25 06:43:26;;;;;;;17.50;3.28;;;;;;;13.07;99.98;101074.38;5055895;28;20404;-59
2022/10/25 06:45:53;;;;;;;19.42;3.95;;;;;;;13.09;99.88;101077.72;5055757;28;20091;-59
2022/10/25 06:48:20;;;;;;;23.63;3.47;;;;;;;13.07;100.00;101085.88;5054545;28;20056;-59
2022/10/25 06:50:47;;;;;;;18.35;3.70;;;;;;;13.03;100.00;101089.84;5055135;28;20095;-60
2022/10/25 06:53:15;;;;;;;12.30;3.55;;;;;;;13.01;100.00;101097.19;5055421;28;20055;-59
2022/10/25 06:55:43;;;;;;;12.77;3.10;;;;;;;12.96;100.00;101106.66;5055561;28;20095;-59
2022/10/25 06:58:10;;;;;;;20.15;4.25;;;;;;;12.98;100.00;101102.00;5055716;28;20083;-59
2022/10/25 07:00:37;;;;;;;19.60;3.30;;;;;;;12.98;100.00;101107.31;5054197;28;20049;-60
2022/10/25 07:03:03;;;;;;;11.65;3.40;;;;;;;13.04;99.43;101110.19;5055639;28;20041;-59
2022/10/25 07:05:30;;;;;;;19.83;3.92;;;;;;;13.05;99.95;101116.34;5051928;28;20053;-59
2022/10/25 07:07:57;;;;;;;14.82;3.38;;;;;;;13.01;100.00;101115.81;5042614;28;20445;-65
2022/10/25 07:10:23;;;;;;;23.83;3.38;;;;;;;13.09;100.00;101114.19;5043286;28;20167;-64
2022/10/25 07:12:50;;;;;;;18.73;3.70;;;;;;;13.13;99.91;101124.34;5031425;28;20045;-65
2022/10/25 07:15:17;;;;;;;17.23;3.40;;;;;;;13.12;100.00;101129.84;5048170;28;20044;-64
2022/10/25 07:17:48;;;;;;;19.73;3.58;;;;;;;13.25;99.07;101135.53;5066509;28;20068;-64
2022/10/25 07:20:15;;;;;;;20.70;3.42;;;;;;;13.24;99.13;101139.19;5052689;28;20111;-64
2022/10/25 07:22:42;;;;;;;15.85;3.40;;;;;;;13.30;97.95;101141.22;5053073;28;20036;-64
2022/10/25 07:25:08;;;;;;;22.08;3.10;;;;;;;13.31;97.41;101139.41;5054538;28;20572;-64
2022/10/25 07:27:35;;;;;;;19.85;3.20;;;;;;;13.36;97.31;101137.94;5052080;28;20056;-64
2022/10/25 07:30:02;;;;;;;20.88;3.63;;;;;;;13.40;96.77;101143.78;5053835;28;20487;-64
2022/10/25 07:32:29;;;;;;;11.20;2.95;;;;;;;13.49;96.57;101144.63;5042989;28;20057;-64
2022/10/25 07:34:56;;;;;;;15.55;3.00;;;;;;;13.48;96.92;101141.13;5043456;28;20041;-64
2022/10/25 07:37:28;;;;;;;20.02;3.33;;;;;;;13.54;96.44;101142.31;5044508;28;20049;-59
2022/10/25 07:39:55;;;;;;;17.58;3.63;;;;;;;13.63;97.49;101138.66;4987741;28;20091;-59
2022/10/25 07:42:21;;;;;;;17.60;3.00;;;;;;;13.69;96.28;101140.66;5052975;28;20041;-60
2022/10/25 07:44:48;;;;;;;17.23;3.08;;;;;;;13.63;96.30;101144.00;5047442;28;20127;-60
2022/10/25 07:47:15;;;;;;;18.45;3.10;;;;;;;13.72;96.07;101148.34;5049700;28;20059;-59
2022/10/25 07:49:41;;;;;;;19.73;3.20;;;;;;;13.78;95.47;101139.66;5045126;28;20045;-59
2022/10/25 07:52:10;;;;;;;15.30;3.20;;;;;;;13.70;95.15;101150.34;5053591;28;20132;-59
2022/10/25 07:54:37;;;;;;;14.00;3.60;;;;;;;13.77;95.65;101151.34;5035980;28;20117;-58
2022/10/25 07:57:05;;;;;;;19.02;3.35;;;;;;;13.76;95.83;101148.84;5049122;28;20479;-58
2022/10/25 07:59:31;;;;;;;16.83;3.45;;;;;;;13.79;96.24;101152.00;5038821;28;20041;-58
2022/10/25 08:01:58;;;;;;;18.83;3.17;;;;;;;13.91;95.45;101151.69;5039458;28;20037;-58
2022/10/25 08:04:25;;;;;;;17.23;3.53;;;;;;;13.99;94.93;101155.19;5047961;28;20060;-58
2022/10/25 08:06:51;;;;;;;18.05;3.10;;;;;;;14.09;94.87;101160.34;5033385;28;20037;-58
2022/10/25 08:09:18;;;;;;;17.98;3.53;;;;;;;14.12;93.40;101162.69;5048601;28;20040;-58
2022/10/25 08:11:58;;;;;;;13.25;2.97;;;;;;;14.10;93.97;101156.69;5047169;28;20116;-60
2022/10/25 08:14:25;;;;;;;14.30;2.85;;;;;;;14.28;92.18;101145.00;5053075;28;20053;-60
2022/10/25 08:16:52;;;;;;;20.25;3.13;;;;;;;14.32;93.33;101152.50;5048274;28;20112;-60
2022/10/25 08:19:19;;;;;;;24.17;3.75;;;;;;;14.34;92.75;101160.34;5040164;28;20064;-59
2022/10/25 08:21:47;;;;;;;11.38;3.30;;;;;;;14.47;92.92;101157.16;5029237;28;20061;-59
2022/10/25 08:24:13;;;;;;;13.52;2.90;;;;;;;14.50;92.54;101156.84;5046749;28;20045;-59
2022/10/25 08:26:40;;;;;;;21.50;3.63;;;;;;;14.57;92.85;101157.78;5050038;28;20136;-59
2022/10/25 08:29:07;;;;;;;21.73;3.28;;;;;;;14.51;92.04;101163.81;5044381;28;20049;-59
2022/10/25 08:31:35;;;;;;;20.67;3.22;;;;;;;14.61;91.62;101163.66;5067857;28;20053;-59
2022/10/25 08:34:01;;;;;;;19.67;3.28;;;;;;;14.62;91.00;101163.50;5043763;28;20045;-59
2022/10/25 08:36:28;;;;;;;19.88;2.97;;;;;;;14.75;90.92;101163.81;5051534;28;20483;-59
2022/10/25 08:38:55;;;;;;;10.07;2.75;;;;;;;14.61;90.14;101167.19;5025476;28;20041;-59
2022/10/25 08:41:33;;;;;;;22.95;3.20;;;;;;;14.62;90.76;101166.16;5006051;28;20033;-60
2022/10/25 08:44:13;;;;;;;19.60;3.33;;;;;;;14.68;91.11;101162.81;5049401;28;20052;-60
2022/10/25 08:46:54;;;;;;;24.67;3.45;;;;;;;14.64;90.39;101164.16;5037140;28;20037;-59
2022/10/25 08:50:01;;;;;;;25.70;4.05;;;;;;;14.79;90.10;101164.31;5058502;28;20128;-59
2022/10/25 08:52:41;;;;;;;15.43;3.30;;;;;;;14.83;89.34;101157.59;5049892;28;20044;-60
2022/10/25 08:55:15;;;;;;;16.23;3.30;;;;;;;14.86;88.75;101169.78;5036537;28;20445;-59
2022/10/25 08:57:45;;;;;;;17.90;3.15;;;;;;;14.95;88.30;101171.41;5045812;28;20037;-59
2022/10/25 09:00:18;;;;;;;16.00;3.03;;;;;;;14.94;86.45;101170.59;5030669;28;20482;-60
2022/10/25 09:06:15;;;;;;;18.23;3.33;;;;;;;14.94;86.96;101178.59;5566285;23;20052;-63
2022/10/25 09:09:15;;;;;;;18.45;3.25;;;;;;;14.83;87.15;101176.31;4891208;29;20101;-63
2022/10/25 09:12:10;;;;;;;13.95;2.85;;;;;;;14.69;88.19;101179.66;4892676;29;20041;-63
2022/10/25 09:15:04;;;;;;;20.98;3.13;;;;;;;14.69;87.68;101183.16;4894438;29;20376;-63
2022/10/25 09:17:47;;;;;;;16.45;3.08;;;;;;;14.57;87.90;101180.03;4896233;29;20049;-64
2022/10/25 09:20:20;;;;;;;14.13;3.38;;;;;;;14.56;89.23;101191.66;4893418;29;20056;-63
2022/10/25 09:22:53;;;;;;;16.30;2.53;;;;;;;14.63;88.31;101189.19;4896834;29;20501;-63
2022/10/25 09:27:59;;;;;;;17.83;3.10;;;;;;;14.80;85.49;101192.66;5109864;27;20895;-63
2022/10/25 09:30:28;;;;;;;9.27;2.38;;;;;;;14.90;84.56;101200.50;5087462;28;20122;-63
2022/10/25 09:33:00;;;;;;;13.85;2.70;;;;;;;14.92;83.17;101199.31;5076749;28;20051;-63
2022/10/25 09:35:37;;;;;;;13.25;2.47;;;;;;;15.07;82.31;101204.75;5110180;28;20678;-63
2022/10/25 09:38:12;;;;;;;11.32;2.42;;;;;;;15.16;82.55;101216.25;5102993;28;20483;-59
2022/10/25 09:40:45;;;;;;;17.33;2.75;;;;;;;15.18;81.29;101206.22;4973492;28;20040;-61
2022/10/25 09:43:17;;;;;;;14.23;3.00;;;;;;;15.19;80.95;101215.94;5112099;28;20051;-59
2022/10/25 09:45:49;;;;;;;11.77;2.80;;;;;;;15.23;81.08;101217.25;5090244;28;20085;-59
2022/10/25 09:48:30;;;;;;;14.95;3.30;;;;;;;15.13;82.88;101216.59;5109809;28;20686;-61
2022/10/25 09:51:21;;;;;;;12.02;3.47;;;;;;;15.13;82.01;101219.28;5109419;28;20036;-61
2022/10/25 09:53:48;;;;;;;15.75;3.45;;;;;;;15.30;81.80;101220.88;5102461;28;20035;-65
2022/10/25 09:56:16;;;;;;;17.40;3.40;;;;;;;15.42;80.66;101218.66;5113414;27;20090;-62
2022/10/25 09:58:45;;;;;;;16.48;3.20;;;;;;;15.51;79.92;101225.63;5103537;28;20044;-62
2022/10/25 10:01:16;;;;;;;14.27;3.40;;;;;;;15.60;79.24;101231.78;5105674;28;20051;-64
2022/10/25 10:03:44;;;;;;;13.25;3.10;;;;;;;15.66;79.90;101227.56;5091155;28;20064;-64
2022/10/25 10:06:25;;;;;;;13.52;3.47;;;;;;;15.70;78.57;101235.06;5119101;27;20052;-64
2022/10/25 10:08:57;;;;;;;13.32;3.45;;;;;;;15.85;78.94;101237.84;5096299;28;20052;-61
2022/10/25 10:11:25;;;;;;;9.93;3.20;;;;;;;16.03;78.90;101242.09;5094389;28;21148;-61
2022/10/25 10:13:59;;;;;;;13.32;3.30;;;;;;;16.23;77.56;101237.94;5123825;28;20442;-61
2022/10/25 10:16:31;;;;;;;10.80;3.20;;;;;;;16.21;76.20;101239.09;5118060;28;20114;-61
2022/10/25 10:19:17;;;;;;;;;;;;;;;16.03;75.63;101239.41;5119136;28;20043;-60
2022/10/25 10:21:46;;;;;;;11.90;2.92;;;;;;;16.01;75.54;101246.75;5084577;28;20003;-61
2022/10/25 10:24:31;;;;;;;12.90;3.05;;;;;;;15.91;75.84;101242.47;5108310;28;20040;-60
2022/10/25 10:27:01;;;;;;;12.90;2.85;;;;;;;16.02;76.47;101248.44;5100897;28;20775;-60
2022/10/25 10:29:31;;;;;;;10.32;3.42;;;;;;;15.87;75.78;101251.88;5119138;27;20114;-61
2022/10/25 10:32:01;;;;;;;16.42;3.10;;;;;;;15.82;76.50;101248.06;5111514;28;20086;-61
2022/10/25 10:34:35;;;;;;;;;;;;;;;15.87;76.12;101257.22;5106766;27;20047;-63
2022/10/25 10:37:12;;;;;;;11.63;3.22;;;;;;;16.03;75.94;101250.13;5111973;28;19927;-63
2022/10/25 10:39:58;;;;;;;15.52;3.00;;;;;;;16.21;75.32;101253.34;4985852;28;20059;-63
2022/10/25 10:42:41;;;;;;;14.57;3.13;;;;;;;16.39;73.88;101250.34;5100652;28;20048;-64
2022/10/25 10:45:14;;;;;;;14.25;2.75;;;;;;;16.54;73.90;101250.38;5091840;28;20076;-64
2022/10/25 10:50:30;;;;;;;12.20;2.40;;;;;;;18.30;66.98;101258.66;5060608;28;20382;-65
2022/10/25 10:53:07;;;;;;;15.25;2.72;;;;;;;19.02;61.19;101257.59;5067048;28;20066;-63
2022/10/25 10:55:47;;;;;;;11.55;2.45;;;;;;;18.32;63.89;101262.84;5064429;28;20049;-63
2022/10/25 10:58:17;;;;;;;13.65;2.28;;;;;;;17.53;66.84;101268.13;5049718;28;20072;-64
2022/10/25 11:00:56;;;;;;;12.73;2.63;;;;;;;18.45;65.75;101259.44;5057772;28;20065;-64
2022/10/25 11:06:29;;;;;;;12.90;2.83;;;;;;;20.66;57.05;101262.06;5103065;27;20366;-64
2022/10/25 11:09:11;;;;;;;14.38;2.38;;;;;;;22.31;50.97;101262.72;5106363;28;20127;-64
2022/10/25 11:11:39;;;;;;;14.02;2.60;;;;;;;22.91;49.61;101257.63;5095073;28;20169;-64
2022/10/25 11:14:14;;;;;;;13.40;2.40;;;;;;;24.70;45.95;101272.56;5096025;28;20049;-64
2022/10/25 11:17:21;;;;;;;12.50;2.50;;;;;;;24.66;44.63;101259.69;5092244;28;20045;-64
2022/10/25 11:20:20;;;;;;;16.33;2.65;;;;;;;21.21;52.62;101260.94;5086198;28;20039;-64
2022/10/25 11:22:56;;;;;;;14.32;2.85;;;;;;;22.35;49.54;101266.66;5084983;28;20041;-64
2022/10/25 11:25:47;;;;;;;10.32;2.35;;;;;;;24.02;45.67;101273.00;5099246;28;20043;-64
2022/10/25 11:28:33;;;;;;;11.48;2.50;;;;;;;24.45;44.66;101272.75;5095930;28;20044;-64
2022/10/25 11:34:29;;;;;;;12.55;2.47;;;;;;;24.93;43.23;101262.75;5070964;27;20416;-63
2022/10/25 11:39:47;;;;;;;16.50;2.70;;;;;;;24.95;42.58;101271.47;5060969;27;20375;-64
2022/10/25 11:45:31;;;;;;;16.98;2.70;;;;;;;23.14;46.78;101254.28;5069995;28;20377;-64
2022/10/25 11:54:21;;;;;;;9.55;2.55;;;;;;;20.04;57.46;101255.97;5107336;27;20366;-63
2022/10/25 11:57:18;;;;;;;11.20;2.60;;;;;;;19.25;59.20;101253.81;5088161;28;20044;-63
2022/10/25 12:00:12;;;;;;;14.20;3.08;;;;;;;19.46;59.41;101251.00;5090524;28;20123;-64
2022/10/25 12:03:14;;;;;;;15.15;2.95;;;;;;;19.18;60.96;101251.09;5079873;28;20036;-63
2022/10/25 12:05:56;;;;;;;10.38;2.20;;;;;;;18.39;63.06;101249.44;5084673;28;20051;-63
2022/10/25 12:08:52;;;;;;;14.82;2.83;;;;;;;18.62;63.17;101251.91;5093495;28;20036;-63
2022/10/25 12:11:26;;;;;;;14.57;2.50;;;;;;;19.29;61.28;101247.00;5086687;28;20051;-64